sensor_id;sensor_type;location;lat;lon;timestamp;P1;durP1;ratioP1;P2;durP2;ratioP2
25449;SDS011;13371;52.080;5.624;2023-04-16T00:01:31;8.55;;;2.45;;
25449;SDS011;13371;52.080;5.624;2023-04-16T00:03:57;11.65;;;3.70;;
25449;SDS011;13371;52.080;5.624;2023-04-16T00:06:23;7.55;;;2.17;;
25449;SDS011;13371;52.080;5.624;2023-04-16T00:08:48;10.02;;;2.83;;
25449;SDS011;13371;52.080;5.624;2023-04-16T00:11:15;8.35;;;2.80;;
25449;SDS011;13371;52.080;5.624;2023-04-16T00:13:41;9.68;;;3.10;;
25449;SDS011;13371;52.080;5.624;2023-04-16T00:16:07;7.65;;;2.92;;
25449;SDS011;13371;52.080;5.624;2023-04-16T00:18:32;10.43;;;2.97;;
25449;SDS011;13371;52.080;5.624;2023-04-16T00:20:58;10.85;;;3.63;;
25449;SDS011;13371;52.080;5.624;2023-04-16T00:23:24;5.97;;;2.97;;
25449;SDS011;13371;52.080;5.624;2023-04-16T00:25:49;13.65;;;3.80;;
25449;SDS011;13371;52.080;5.624;2023-04-16T00:28:15;11.25;;;3.70;;
25449;SDS011;13371;52.080;5.624;2023-04-16T00:30:41;9.00;;;3.13;;
25449;SDS011;13371;52.080;5.624;2023-04-16T00:33:06;9.20;;;3.85;;
25449;SDS011;13371;52.080;5.624;2023-04-16T00:35:32;13.07;;;3.63;;
25449;SDS011;13371;52.080;5.624;2023-04-16T00:37:58;14.20;;;3.30;;
25449;SDS011;13371;52.080;5.624;2023-04-16T00:40:26;11.23;;;3.60;;
25449;SDS011;13371;52.080;5.624;2023-04-16T00:42:52;16.52;;;4.47;;
25449;SDS011;13371;52.080;5.624;2023-04-16T00:45:18;13.27;;;4.20;;
25449;SDS011;13371;52.080;5.624;2023-04-16T00:47:44;14.20;;;4.20;;
25449;SDS011;13371;52.080;5.624;2023-04-16T00:50:10;13.15;;;4.35;;
25449;SDS011;13371;52.080;5.624;2023-04-16T00:52:36;11.63;;;4.55;;
25449;SDS011;13371;52.080;5.624;2023-04-16T00:55:02;15.98;;;4.63;;
25449;SDS011;13371;52.080;5.624;2023-04-16T00:57:30;11.65;;;5.30;;
25449;SDS011;13371;52.080;5.624;2023-04-16T00:59:56;16.00;;;4.90;;
25449;SDS011;13371;52.080;5.624;2023-04-16T01:02:22;15.65;;;4.68;;
25449;SDS011;13371;52.080;5.624;2023-04-16T01:04:47;13.93;;;4.25;;
25449;SDS011;13371;52.080;5.624;2023-04-16T01:07:13;11.02;;;4.68;;
25449;SDS011;13371;52.080;5.624;2023-04-16T01:09:38;16.88;;;5.05;;
25449;SDS011;13371;52.080;5.624;2023-04-16T01:12:04;11.10;;;3.70;;
25449;SDS011;13371;52.080;5.624;2023-04-16T01:14:30;21.00;;;6.07;;
25449;SDS011;13371;52.080;5.624;2023-04-16T01:17:00;19.20;;;5.05;;
25449;SDS011;13371;52.080;5.624;2023-04-16T01:19:26;17.35;;;5.85;;
25449;SDS011;13371;52.080;5.624;2023-04-16T01:21:53;13.55;;;5.47;;
25449;SDS011;13371;52.080;5.624;2023-04-16T01:24:18;19.23;;;6.07;;
25449;SDS011;13371;52.080;5.624;2023-04-16T01:26:44;15.90;;;5.03;;
25449;SDS011;13371;52.080;5.624;2023-04-16T01:29:10;16.05;;;5.40;;
25449;SDS011;13371;52.080;5.624;2023-04-16T01:31:35;16.88;;;5.38;;
25449;SDS011;13371;52.080;5.624;2023-04-16T01:34:01;17.60;;;5.60;;
25449;SDS011;13371;52.080;5.624;2023-04-16T01:36:26;17.48;;;6.13;;
25449;SDS011;13371;52.080;5.624;2023-04-16T01:38:52;13.10;;;5.40;;
25449;SDS011;13371;52.080;5.624;2023-04-16T01:41:17;15.27;;;5.60;;
25449;SDS011;13371;52.080;5.624;2023-04-16T01:43:43;14.23;;;6.07;;
25449;SDS011;13371;52.080;5.624;2023-04-16T01:46:19;17.63;;;5.65;;
25449;SDS011;13371;52.080;5.624;2023-04-16T01:48:49;18.45;;;6.20;;
25449;SDS011;13371;52.080;5.624;2023-04-16T01:51:18;13.48;;;4.78;;
25449;SDS011;13371;52.080;5.624;2023-04-16T01:53:44;15.90;;;6.38;;
25449;SDS011;13371;52.080;5.624;2023-04-16T01:56:10;27.60;;;6.13;;
25449;SDS011;13371;52.080;5.624;2023-04-16T01:58:35;15.05;;;5.35;;
25449;SDS011;13371;52.080;5.624;2023-04-16T02:01:01;19.98;;;5.82;;
25449;SDS011;13371;52.080;5.624;2023-04-16T02:03:28;14.63;;;5.53;;
25449;SDS011;13371;52.080;5.624;2023-04-16T02:05:55;29.65;;;8.07;;
25449;SDS011;13371;52.080;5.624;2023-04-16T02:08:20;14.38;;;4.88;;
25449;SDS011;13371;52.080;5.624;2023-04-16T02:10:46;17.52;;;6.82;;
25449;SDS011;13371;52.080;5.624;2023-04-16T02:13:13;15.60;;;5.95;;
25449;SDS011;13371;52.080;5.624;2023-04-16T02:15:47;22.80;;;7.95;;
25449;SDS011;13371;52.080;5.624;2023-04-16T02:18:13;26.77;;;6.67;;
25449;SDS011;13371;52.080;5.624;2023-04-16T02:20:39;20.65;;;6.20;;
25449;SDS011;13371;52.080;5.624;2023-04-16T02:23:08;15.48;;;6.30;;
25449;SDS011;13371;52.080;5.624;2023-04-16T02:25:39;18.27;;;6.28;;
25449;SDS011;13371;52.080;5.624;2023-04-16T02:28:10;19.05;;;7.07;;
25449;SDS011;13371;52.080;5.624;2023-04-16T02:30:38;25.55;;;6.28;;
25449;SDS011;13371;52.080;5.624;2023-04-16T02:33:05;14.43;;;6.18;;
25449;SDS011;13371;52.080;5.624;2023-04-16T02:35:32;15.45;;;6.03;;
25449;SDS011;13371;52.080;5.624;2023-04-16T02:37:58;17.77;;;6.28;;
25449;SDS011;13371;52.080;5.624;2023-04-16T02:40:24;15.70;;;6.13;;
25449;SDS011;13371;52.080;5.624;2023-04-16T02:42:50;15.23;;;6.95;;
25449;SDS011;13371;52.080;5.624;2023-04-16T02:45:17;27.88;;;6.57;;
25449;SDS011;13371;52.080;5.624;2023-04-16T02:47:42;20.58;;;7.88;;
25449;SDS011;13371;52.080;5.624;2023-04-16T02:50:08;20.30;;;7.80;;
25449;SDS011;13371;52.080;5.624;2023-04-16T02:52:34;16.05;;;6.70;;
25449;SDS011;13371;52.080;5.624;2023-04-16T02:55:00;21.35;;;6.85;;
25449;SDS011;13371;52.080;5.624;2023-04-16T02:57:25;18.77;;;6.95;;
25449;SDS011;13371;52.080;5.624;2023-04-16T02:59:51;21.38;;;7.90;;
25449;SDS011;13371;52.080;5.624;2023-04-16T03:02:17;19.60;;;6.53;;
25449;SDS011;13371;52.080;5.624;2023-04-16T03:04:42;19.02;;;7.57;;
25449;SDS011;13371;52.080;5.624;2023-04-16T03:07:08;27.05;;;8.23;;
25449;SDS011;13371;52.080;5.624;2023-04-16T03:09:34;28.17;;;7.75;;
25449;SDS011;13371;52.080;5.624;2023-04-16T03:12:00;23.60;;;8.15;;
25449;SDS011;13371;52.080;5.624;2023-04-16T03:14:28;19.27;;;7.63;;
25449;SDS011;13371;52.080;5.624;2023-04-16T03:16:55;20.50;;;8.27;;
25449;SDS011;13371;52.080;5.624;2023-04-16T03:19:21;23.15;;;8.18;;
25449;SDS011;13371;52.080;5.624;2023-04-16T03:21:46;21.50;;;7.40;;
25449;SDS011;13371;52.080;5.624;2023-04-16T03:24:12;30.98;;;8.75;;
25449;SDS011;13371;52.080;5.624;2023-04-16T03:26:38;25.35;;;8.10;;
25449;SDS011;13371;52.080;5.624;2023-04-16T03:29:03;18.58;;;8.13;;
25449;SDS011;13371;52.080;5.624;2023-04-16T03:31:29;26.00;;;8.27;;
25449;SDS011;13371;52.080;5.624;2023-04-16T03:33:54;26.83;;;8.50;;
25449;SDS011;13371;52.080;5.624;2023-04-16T03:36:20;16.70;;;7.72;;
25449;SDS011;13371;52.080;5.624;2023-04-16T03:38:47;22.20;;;8.25;;
25449;SDS011;13371;52.080;5.624;2023-04-16T03:41:13;23.10;;;9.55;;
25449;SDS011;13371;52.080;5.624;2023-04-16T03:43:38;29.85;;;8.48;;
25449;SDS011;13371;52.080;5.624;2023-04-16T03:46:04;26.15;;;8.98;;
25449;SDS011;13371;52.080;5.624;2023-04-16T03:48:30;24.60;;;9.90;;
25449;SDS011;13371;52.080;5.624;2023-04-16T03:50:55;29.80;;;11.27;;
25449;SDS011;13371;52.080;5.624;2023-04-16T03:53:21;32.70;;;9.77;;
25449;SDS011;13371;52.080;5.624;2023-04-16T03:55:48;25.88;;;9.50;;
25449;SDS011;13371;52.080;5.624;2023-04-16T03:58:17;32.08;;;9.73;;
25449;SDS011;13371;52.080;5.624;2023-04-16T04:00:43;26.20;;;10.80;;
25449;SDS011;13371;52.080;5.624;2023-04-16T04:03:09;22.25;;;9.30;;
25449;SDS011;13371;52.080;5.624;2023-04-16T04:05:39;25.48;;;9.85;;
25449;SDS011;13371;52.080;5.624;2023-04-16T04:08:05;23.65;;;10.02;;
25449;SDS011;13371;52.080;5.624;2023-04-16T04:10:32;25.98;;;10.70;;
25449;SDS011;13371;52.080;5.624;2023-04-16T04:12:58;25.45;;;9.65;;
25449;SDS011;13371;52.080;5.624;2023-04-16T04:15:25;30.17;;;11.48;;
25449;SDS011;13371;52.080;5.624;2023-04-16T04:17:50;32.17;;;10.90;;
25449;SDS011;13371;52.080;5.624;2023-04-16T04:20:16;20.65;;;9.50;;
25449;SDS011;13371;52.080;5.624;2023-04-16T04:22:41;20.38;;;9.02;;
25449;SDS011;13371;52.080;5.624;2023-04-16T04:25:08;29.50;;;9.25;;
25449;SDS011;13371;52.080;5.624;2023-04-16T04:27:34;28.90;;;10.02;;
25449;SDS011;13371;52.080;5.624;2023-04-16T04:30:00;19.42;;;8.57;;
25449;SDS011;13371;52.080;5.624;2023-04-16T04:32:26;24.42;;;8.95;;
25449;SDS011;13371;52.080;5.624;2023-04-16T04:34:51;22.80;;;8.70;;
25449;SDS011;13371;52.080;5.624;2023-04-16T04:37:17;24.95;;;8.35;;
25449;SDS011;13371;52.080;5.624;2023-04-16T04:39:43;24.02;;;8.80;;
25449;SDS011;13371;52.080;5.624;2023-04-16T04:42:08;30.38;;;9.77;;
25449;SDS011;13371;52.080;5.624;2023-04-16T04:44:34;21.60;;;8.70;;
25449;SDS011;13371;52.080;5.624;2023-04-16T04:46:59;20.63;;;7.53;;
25449;SDS011;13371;52.080;5.624;2023-04-16T04:49:25;21.00;;;8.50;;
25449;SDS011;13371;52.080;5.624;2023-04-16T04:51:50;25.88;;;8.90;;
25449;SDS011;13371;52.080;5.624;2023-04-16T04:54:16;18.83;;;7.65;;
25449;SDS011;13371;52.080;5.624;2023-04-16T04:56:41;18.25;;;7.38;;
25449;SDS011;13371;52.080;5.624;2023-04-16T04:59:09;26.50;;;8.50;;
25449;SDS011;13371;52.080;5.624;2023-04-16T05:01:35;23.63;;;8.43;;
25449;SDS011;13371;52.080;5.624;2023-04-16T05:04:02;21.45;;;8.23;;
25449;SDS011;13371;52.080;5.624;2023-04-16T05:06:27;23.85;;;8.68;;
25449;SDS011;13371;52.080;5.624;2023-04-16T05:08:53;28.35;;;9.45;;
25449;SDS011;13371;52.080;5.624;2023-04-16T05:11:18;21.27;;;7.53;;
25449;SDS011;13371;52.080;5.624;2023-04-16T05:13:44;25.02;;;9.00;;
25449;SDS011;13371;52.080;5.624;2023-04-16T05:16:10;20.50;;;7.93;;
25449;SDS011;13371;52.080;5.624;2023-04-16T05:18:35;23.75;;;8.73;;
25449;SDS011;13371;52.080;5.624;2023-04-16T05:21:01;23.73;;;8.55;;
25449;SDS011;13371;52.080;5.624;2023-04-16T05:23:26;25.92;;;8.55;;
25449;SDS011;13371;52.080;5.624;2023-04-16T05:25:52;23.30;;;8.85;;
25449;SDS011;13371;52.080;5.624;2023-04-16T05:28:17;19.90;;;8.55;;
25449;SDS011;13371;52.080;5.624;2023-04-16T05:30:43;24.48;;;8.85;;
25449;SDS011;13371;52.080;5.624;2023-04-16T05:33:08;21.70;;;8.88;;
25449;SDS011;13371;52.080;5.624;2023-04-16T05:35:39;20.90;;;9.30;;
25449;SDS011;13371;52.080;5.624;2023-04-16T05:38:05;20.70;;;8.45;;
25449;SDS011;13371;52.080;5.624;2023-04-16T05:40:30;21.13;;;8.50;;
25449;SDS011;13371;52.080;5.624;2023-04-16T05:42:56;23.90;;;8.52;;
25449;SDS011;13371;52.080;5.624;2023-04-16T05:45:22;21.58;;;8.73;;
25449;SDS011;13371;52.080;5.624;2023-04-16T05:47:48;16.90;;;7.45;;
25449;SDS011;13371;52.080;5.624;2023-04-16T05:50:13;20.88;;;8.00;;
25449;SDS011;13371;52.080;5.624;2023-04-16T05:52:39;19.02;;;7.80;;
25449;SDS011;13371;52.080;5.624;2023-04-16T05:55:05;22.25;;;8.40;;
25449;SDS011;13371;52.080;5.624;2023-04-16T05:57:31;24.63;;;8.52;;
25449;SDS011;13371;52.080;5.624;2023-04-16T05:59:57;21.20;;;7.88;;
25449;SDS011;13371;52.080;5.624;2023-04-16T06:02:23;23.85;;;8.40;;
25449;SDS011;13371;52.080;5.624;2023-04-16T06:04:48;21.17;;;7.60;;
25449;SDS011;13371;52.080;5.624;2023-04-16T06:07:14;16.52;;;7.63;;
25449;SDS011;13371;52.080;5.624;2023-04-16T06:09:40;22.95;;;9.27;;
25449;SDS011;13371;52.080;5.624;2023-04-16T06:12:06;20.40;;;7.68;;
25449;SDS011;13371;52.080;5.624;2023-04-16T06:14:32;21.90;;;8.43;;
25449;SDS011;13371;52.080;5.624;2023-04-16T06:16:57;16.92;;;8.70;;
25449;SDS011;13371;52.080;5.624;2023-04-16T06:19:26;20.13;;;8.05;;
25449;SDS011;13371;52.080;5.624;2023-04-16T06:21:51;16.83;;;7.53;;
25449;SDS011;13371;52.080;5.624;2023-04-16T06:24:17;26.08;;;8.65;;
25449;SDS011;13371;52.080;5.624;2023-04-16T06:26:43;21.75;;;9.23;;
25449;SDS011;13371;52.080;5.624;2023-04-16T06:29:09;23.15;;;8.68;;
25449;SDS011;13371;52.080;5.624;2023-04-16T06:31:35;22.35;;;9.50;;
25449;SDS011;13371;52.080;5.624;2023-04-16T06:34:01;20.30;;;9.05;;
25449;SDS011;13371;52.080;5.624;2023-04-16T06:36:27;17.77;;;7.75;;
25449;SDS011;13371;52.080;5.624;2023-04-16T06:38:53;28.48;;;9.02;;
25449;SDS011;13371;52.080;5.624;2023-04-16T06:41:18;25.00;;;9.45;;
25449;SDS011;13371;52.080;5.624;2023-04-16T06:43:46;33.05;;;9.52;;
25449;SDS011;13371;52.080;5.624;2023-04-16T06:46:12;31.05;;;8.95;;
25449;SDS011;13371;52.080;5.624;2023-04-16T06:48:37;28.55;;;10.13;;
25449;SDS011;13371;52.080;5.624;2023-04-16T06:51:03;26.13;;;8.23;;
25449;SDS011;13371;52.080;5.624;2023-04-16T06:53:38;22.42;;;8.68;;
25449;SDS011;13371;52.080;5.624;2023-04-16T06:56:03;20.60;;;9.27;;
25449;SDS011;13371;52.080;5.624;2023-04-16T06:58:30;30.00;;;10.23;;
25449;SDS011;13371;52.080;5.624;2023-04-16T07:00:55;29.40;;;10.15;;
25449;SDS011;13371;52.080;5.624;2023-04-16T07:03:23;20.40;;;9.38;;
25449;SDS011;13371;52.080;5.624;2023-04-16T07:05:52;24.23;;;10.30;;
25449;SDS011;13371;52.080;5.624;2023-04-16T07:08:21;22.08;;;10.23;;
25449;SDS011;13371;52.080;5.624;2023-04-16T07:10:46;24.58;;;10.15;;
25449;SDS011;13371;52.080;5.624;2023-04-16T07:13:23;25.42;;;10.18;;
25449;SDS011;13371;52.080;5.624;2023-04-16T07:15:51;27.40;;;10.70;;
25449;SDS011;13371;52.080;5.624;2023-04-16T07:18:25;27.17;;;11.07;;
25449;SDS011;13371;52.080;5.624;2023-04-16T07:20:51;27.02;;;10.48;;
25449;SDS011;13371;52.080;5.624;2023-04-16T07:23:19;29.90;;;11.88;;
25449;SDS011;13371;52.080;5.624;2023-04-16T07:25:47;31.10;;;11.02;;
25449;SDS011;13371;52.080;5.624;2023-04-16T07:28:13;35.22;;;12.07;;
25449;SDS011;13371;52.080;5.624;2023-04-16T07:30:41;27.38;;;10.77;;
25449;SDS011;13371;52.080;5.624;2023-04-16T07:33:10;37.42;;;11.90;;
25449;SDS011;13371;52.080;5.624;2023-04-16T07:35:36;35.40;;;12.80;;
25449;SDS011;13371;52.080;5.624;2023-04-16T07:38:04;29.73;;;11.32;;
25449;SDS011;13371;52.080;5.624;2023-04-16T07:40:30;27.52;;;11.63;;
25449;SDS011;13371;52.080;5.624;2023-04-16T07:42:55;26.83;;;10.63;;
25449;SDS011;13371;52.080;5.624;2023-04-16T07:45:22;28.17;;;10.20;;
25449;SDS011;13371;52.080;5.624;2023-04-16T07:47:47;24.77;;;11.45;;
25449;SDS011;13371;52.080;5.624;2023-04-16T07:50:13;24.65;;;11.10;;
25449;SDS011;13371;52.080;5.624;2023-04-16T07:52:40;23.75;;;11.15;;
25449;SDS011;13371;52.080;5.624;2023-04-16T07:55:09;25.75;;;10.95;;
25449;SDS011;13371;52.080;5.624;2023-04-16T07:57:35;26.92;;;10.63;;
25449;SDS011;13371;52.080;5.624;2023-04-16T08:00:01;29.75;;;11.70;;
25449;SDS011;13371;52.080;5.624;2023-04-16T08:02:31;28.83;;;11.05;;
25449;SDS011;13371;52.080;5.624;2023-04-16T08:04:57;23.98;;;11.35;;
25449;SDS011;13371;52.080;5.624;2023-04-16T08:07:23;31.73;;;12.18;;
25449;SDS011;13371;52.080;5.624;2023-04-16T08:09:52;31.85;;;11.63;;
25449;SDS011;13371;52.080;5.624;2023-04-16T08:12:18;25.85;;;10.65;;
25449;SDS011;13371;52.080;5.624;2023-04-16T08:14:44;32.65;;;12.07;;
25449;SDS011;13371;52.080;5.624;2023-04-16T08:17:11;25.40;;;11.60;;
25449;SDS011;13371;52.080;5.624;2023-04-16T08:19:37;26.85;;;11.52;;
25449;SDS011;13371;52.080;5.624;2023-04-16T08:22:02;29.15;;;12.10;;
25449;SDS011;13371;52.080;5.624;2023-04-16T08:24:28;24.25;;;11.70;;
25449;SDS011;13371;52.080;5.624;2023-04-16T08:26:54;29.55;;;12.05;;
25449;SDS011;13371;52.080;5.624;2023-04-16T08:29:20;28.85;;;11.95;;
25449;SDS011;13371;52.080;5.624;2023-04-16T08:31:45;30.15;;;11.85;;
25449;SDS011;13371;52.080;5.624;2023-04-16T08:34:12;30.00;;;12.38;;
25449;SDS011;13371;52.080;5.624;2023-04-16T08:36:38;31.27;;;11.10;;
25449;SDS011;13371;52.080;5.624;2023-04-16T08:39:05;25.85;;;10.93;;
25449;SDS011;13371;52.080;5.624;2023-04-16T08:41:31;27.20;;;10.95;;
25449;SDS011;13371;52.080;5.624;2023-04-16T08:43:59;27.60;;;11.82;;
25449;SDS011;13371;52.080;5.624;2023-04-16T08:46:28;25.98;;;11.95;;
25449;SDS011;13371;52.080;5.624;2023-04-16T08:48:55;26.58;;;11.15;;
25449;SDS011;13371;52.080;5.624;2023-04-16T08:51:24;31.58;;;12.13;;
25449;SDS011;13371;52.080;5.624;2023-04-16T08:53:53;21.45;;;10.70;;
25449;SDS011;13371;52.080;5.624;2023-04-16T08:56:35;27.58;;;10.90;;
25449;SDS011;13371;52.080;5.624;2023-04-16T08:59:01;25.23;;;10.48;;
25449;SDS011;13371;52.080;5.624;2023-04-16T09:01:29;33.25;;;11.75;;
25449;SDS011;13371;52.080;5.624;2023-04-16T09:03:57;33.60;;;11.32;;
25449;SDS011;13371;52.080;5.624;2023-04-16T09:06:25;32.75;;;12.65;;
25449;SDS011;13371;52.080;5.624;2023-04-16T09:08:55;33.40;;;11.80;;
25449;SDS011;13371;52.080;5.624;2023-04-16T09:11:24;24.70;;;11.27;;
25449;SDS011;13371;52.080;5.624;2023-04-16T09:13:50;24.48;;;10.30;;
25449;SDS011;13371;52.080;5.624;2023-04-16T09:16:16;31.35;;;11.95;;
25449;SDS011;13371;52.080;5.624;2023-04-16T09:18:44;26.85;;;11.65;;
25449;SDS011;13371;52.080;5.624;2023-04-16T09:21:11;26.38;;;11.43;;
25449;SDS011;13371;52.080;5.624;2023-04-16T09:23:37;30.95;;;11.82;;
25449;SDS011;13371;52.080;5.624;2023-04-16T09:26:06;32.70;;;12.82;;
25449;SDS011;13371;52.080;5.624;2023-04-16T09:28:41;31.17;;;12.98;;
25449;SDS011;13371;52.080;5.624;2023-04-16T09:33:42;27.60;;;12.45;;
25449;SDS011;13371;52.080;5.624;2023-04-16T09:36:24;25.20;;;11.70;;
25449;SDS011;13371;52.080;5.624;2023-04-16T09:38:51;30.25;;;11.93;;
25449;SDS011;13371;52.080;5.624;2023-04-16T09:41:17;29.88;;;12.10;;
25449;SDS011;13371;52.080;5.624;2023-04-16T09:44:04;27.33;;;11.73;;
25449;SDS011;13371;52.080;5.624;2023-04-16T09:46:36;29.65;;;10.20;;
25449;SDS011;13371;52.080;5.624;2023-04-16T09:49:08;27.10;;;10.82;;
25449;SDS011;13371;52.080;5.624;2023-04-16T09:51:40;24.92;;;10.38;;
25449;SDS011;13371;52.080;5.624;2023-04-16T09:54:06;27.17;;;11.63;;
25449;SDS011;13371;52.080;5.624;2023-04-16T09:56:32;28.98;;;10.90;;
25449;SDS011;13371;52.080;5.624;2023-04-16T09:59:01;28.75;;;10.45;;
25449;SDS011;13371;52.080;5.624;2023-04-16T10:01:26;28.40;;;11.05;;
25449;SDS011;13371;52.080;5.624;2023-04-16T10:03:55;37.90;;;12.00;;
25449;SDS011;13371;52.080;5.624;2023-04-16T10:06:23;27.55;;;9.75;;
25449;SDS011;13371;52.080;5.624;2023-04-16T10:08:52;21.08;;;9.27;;
25449;SDS011;13371;52.080;5.624;2023-04-16T10:11:21;25.20;;;9.50;;
25449;SDS011;13371;52.080;5.624;2023-04-16T10:13:47;30.88;;;10.15;;
25449;SDS011;13371;52.080;5.624;2023-04-16T10:16:14;25.80;;;12.10;;
25449;SDS011;13371;52.080;5.624;2023-04-16T10:18:40;27.63;;;10.55;;
25449;SDS011;13371;52.080;5.624;2023-04-16T10:21:07;23.45;;;9.70;;
25449;SDS011;13371;52.080;5.624;2023-04-16T10:23:35;22.98;;;9.93;;
25449;SDS011;13371;52.080;5.624;2023-04-16T10:26:03;25.40;;;9.75;;
25449;SDS011;13371;52.080;5.624;2023-04-16T10:28:29;23.83;;;9.90;;
25449;SDS011;13371;52.080;5.624;2023-04-16T10:30:56;21.27;;;11.27;;
25449;SDS011;13371;52.080;5.624;2023-04-16T10:33:29;26.17;;;10.10;;
25449;SDS011;13371;52.080;5.624;2023-04-16T10:38:48;23.30;;;10.27;;
25449;SDS011;13371;52.080;5.624;2023-04-16T10:41:16;17.40;;;9.07;;
25449;SDS011;13371;52.080;5.624;2023-04-16T10:43:47;18.70;;;8.55;;
25449;SDS011;13371;52.080;5.624;2023-04-16T10:46:23;22.73;;;8.85;;
25449;SDS011;13371;52.080;5.624;2023-04-16T10:48:49;21.38;;;9.57;;
25449;SDS011;13371;52.080;5.624;2023-04-16T10:51:31;23.58;;;8.93;;
25449;SDS011;13371;52.080;5.624;2023-04-16T10:54:02;18.48;;;8.73;;
25449;SDS011;13371;52.080;5.624;2023-04-16T10:56:30;21.35;;;9.93;;
25449;SDS011;13371;52.080;5.624;2023-04-16T10:58:57;19.48;;;8.63;;
25449;SDS011;13371;52.080;5.624;2023-04-16T11:01:32;21.75;;;9.48;;
25449;SDS011;13371;52.080;5.624;2023-04-16T11:04:45;23.15;;;10.70;;
25449;SDS011;13371;52.080;5.624;2023-04-16T11:12:16;24.25;;;9.90;;
25449;SDS011;13371;52.080;5.624;2023-04-16T11:14:46;21.70;;;9.65;;
25449;SDS011;13371;52.080;5.624;2023-04-16T11:17:16;21.02;;;9.07;;
25449;SDS011;13371;52.080;5.624;2023-04-16T11:19:42;18.33;;;9.20;;
25449;SDS011;13371;52.080;5.624;2023-04-16T11:22:10;21.85;;;10.00;;
25449;SDS011;13371;52.080;5.624;2023-04-16T11:24:37;24.70;;;9.82;;
25449;SDS011;13371;52.080;5.624;2023-04-16T11:27:04;16.58;;;8.98;;
25449;SDS011;13371;52.080;5.624;2023-04-16T11:29:31;18.10;;;8.57;;
25449;SDS011;13371;52.080;5.624;2023-04-16T11:31:56;22.05;;;9.38;;
25449;SDS011;13371;52.080;5.624;2023-04-16T11:34:22;17.33;;;8.32;;
25449;SDS011;13371;52.080;5.624;2023-04-16T11:36:48;19.05;;;8.70;;
25449;SDS011;13371;52.080;5.624;2023-04-16T11:39:15;15.80;;;8.10;;
25449;SDS011;13371;52.080;5.624;2023-04-16T11:41:41;18.58;;;8.98;;
25449;SDS011;13371;52.080;5.624;2023-04-16T11:46:43;21.48;;;9.02;;
25449;SDS011;13371;52.080;5.624;2023-04-16T11:49:09;21.08;;;9.88;;
25449;SDS011;13371;52.080;5.624;2023-04-16T11:51:41;21.10;;;8.30;;
25449;SDS011;13371;52.080;5.624;2023-04-16T11:56:34;19.05;;;7.97;;
25449;SDS011;13371;52.080;5.624;2023-04-16T11:59:20;17.40;;;8.25;;
25449;SDS011;13371;52.080;5.624;2023-04-16T12:01:47;20.17;;;7.85;;
25449;SDS011;13371;52.080;5.624;2023-04-16T12:04:15;20.02;;;8.05;;
25449;SDS011;13371;52.080;5.624;2023-04-16T12:09:34;23.75;;;8.57;;
25449;SDS011;13371;52.080;5.624;2023-04-16T12:12:01;20.20;;;7.88;;
25449;SDS011;13371;52.080;5.624;2023-04-16T12:14:27;14.15;;;7.50;;
25449;SDS011;13371;52.080;5.624;2023-04-16T12:16:53;17.52;;;7.70;;
25449;SDS011;13371;52.080;5.624;2023-04-16T12:19:19;12.18;;;6.85;;
25449;SDS011;13371;52.080;5.624;2023-04-16T12:21:46;17.60;;;8.10;;
25449;SDS011;13371;52.080;5.624;2023-04-16T12:24:14;14.98;;;7.13;;
25449;SDS011;13371;52.080;5.624;2023-04-16T12:26:45;16.58;;;7.47;;
25449;SDS011;13371;52.080;5.624;2023-04-16T12:31:45;18.35;;;7.88;;
25449;SDS011;13371;52.080;5.624;2023-04-16T12:34:12;11.25;;;7.22;;
25449;SDS011;13371;52.080;5.624;2023-04-16T12:36:39;14.88;;;7.90;;
25449;SDS011;13371;52.080;5.624;2023-04-16T12:39:05;21.40;;;8.63;;
25449;SDS011;13371;52.080;5.624;2023-04-16T12:41:34;18.52;;;8.10;;
25449;SDS011;13371;52.080;5.624;2023-04-16T12:44:05;22.23;;;8.02;;
25449;SDS011;13371;52.080;5.624;2023-04-16T12:46:33;19.02;;;8.48;;
25449;SDS011;13371;52.080;5.624;2023-04-16T12:49:00;25.13;;;8.50;;
25449;SDS011;13371;52.080;5.624;2023-04-16T12:51:26;18.35;;;7.75;;
25449;SDS011;13371;52.080;5.624;2023-04-16T12:53:51;17.63;;;8.70;;
25449;SDS011;13371;52.080;5.624;2023-04-16T12:56:17;20.75;;;8.80;;
25449;SDS011;13371;52.080;5.624;2023-04-16T12:58:43;20.67;;;9.20;;
25449;SDS011;13371;52.080;5.624;2023-04-16T13:01:08;16.67;;;8.57;;
25449;SDS011;13371;52.080;5.624;2023-04-16T13:03:35;23.77;;;10.10;;
25449;SDS011;13371;52.080;5.624;2023-04-16T13:06:01;17.27;;;9.75;;
25449;SDS011;13371;52.080;5.624;2023-04-16T13:08:27;24.02;;;10.23;;
25449;SDS011;13371;52.080;5.624;2023-04-16T13:10:53;23.98;;;9.50;;
25449;SDS011;13371;52.080;5.624;2023-04-16T13:13:19;23.45;;;10.48;;
25449;SDS011;13371;52.080;5.624;2023-04-16T13:15:44;23.45;;;9.25;;
25449;SDS011;13371;52.080;5.624;2023-04-16T13:18:10;20.67;;;8.50;;
25449;SDS011;13371;52.080;5.624;2023-04-16T13:20:36;27.63;;;11.23;;
25449;SDS011;13371;52.080;5.624;2023-04-16T13:23:01;22.05;;;8.75;;
25449;SDS011;13371;52.080;5.624;2023-04-16T13:25:29;21.38;;;9.75;;
25449;SDS011;13371;52.080;5.624;2023-04-16T13:27:55;18.08;;;8.88;;
25449;SDS011;13371;52.080;5.624;2023-04-16T13:30:21;21.95;;;8.60;;
25449;SDS011;13371;52.080;5.624;2023-04-16T13:32:47;21.73;;;9.00;;
25449;SDS011;13371;52.080;5.624;2023-04-16T13:35:12;18.38;;;9.23;;
25449;SDS011;13371;52.080;5.624;2023-04-16T13:37:38;24.38;;;10.32;;
25449;SDS011;13371;52.080;5.624;2023-04-16T13:40:04;22.30;;;10.13;;
25449;SDS011;13371;52.080;5.624;2023-04-16T13:42:30;21.52;;;9.35;;
25449;SDS011;13371;52.080;5.624;2023-04-16T13:44:56;17.83;;;9.18;;
25449;SDS011;13371;52.080;5.624;2023-04-16T13:47:22;17.95;;;8.63;;
25449;SDS011;13371;52.080;5.624;2023-04-16T13:49:48;21.33;;;10.82;;
25449;SDS011;13371;52.080;5.624;2023-04-16T13:52:13;23.00;;;9.45;;
25449;SDS011;13371;52.080;5.624;2023-04-16T13:54:39;22.63;;;9.10;;
25449;SDS011;13371;52.080;5.624;2023-04-16T13:57:05;19.33;;;9.65;;
25449;SDS011;13371;52.080;5.624;2023-04-16T13:59:31;20.27;;;9.55;;
25449;SDS011;13371;52.080;5.624;2023-04-16T14:01:57;13.55;;;7.80;;
25449;SDS011;13371;52.080;5.624;2023-04-16T14:04:23;17.17;;;8.23;;
25449;SDS011;13371;52.080;5.624;2023-04-16T14:06:48;15.93;;;7.95;;
25449;SDS011;13371;52.080;5.624;2023-04-16T14:09:14;18.67;;;8.88;;
25449;SDS011;13371;52.080;5.624;2023-04-16T14:11:40;14.35;;;7.95;;
25449;SDS011;13371;52.080;5.624;2023-04-16T14:14:05;17.40;;;8.32;;
25449;SDS011;13371;52.080;5.624;2023-04-16T14:16:31;19.80;;;8.38;;
25449;SDS011;13371;52.080;5.624;2023-04-16T14:18:57;20.05;;;8.20;;
25449;SDS011;13371;52.080;5.624;2023-04-16T14:21:22;16.50;;;8.85;;
25449;SDS011;13371;52.080;5.624;2023-04-16T14:23:48;15.18;;;9.05;;
25449;SDS011;13371;52.080;5.624;2023-04-16T14:26:14;13.80;;;8.23;;
25449;SDS011;13371;52.080;5.624;2023-04-16T14:28:40;18.27;;;8.00;;
25449;SDS011;13371;52.080;5.624;2023-04-16T14:31:05;18.10;;;8.45;;
25449;SDS011;13371;52.080;5.624;2023-04-16T14:33:31;17.02;;;8.52;;
25449;SDS011;13371;52.080;5.624;2023-04-16T14:35:56;17.30;;;8.32;;
25449;SDS011;13371;52.080;5.624;2023-04-16T14:38:22;18.13;;;8.25;;
25449;SDS011;13371;52.080;5.624;2023-04-16T14:40:48;17.55;;;8.35;;
25449;SDS011;13371;52.080;5.624;2023-04-16T14:43:13;15.02;;;7.78;;
25449;SDS011;13371;52.080;5.624;2023-04-16T14:45:39;17.17;;;8.43;;
25449;SDS011;13371;52.080;5.624;2023-04-16T14:48:05;18.27;;;9.00;;
25449;SDS011;13371;52.080;5.624;2023-04-16T14:50:32;13.07;;;8.43;;